sensor_id;sensor_type;location;lat;lon;timestamp;P1;durP1;ratioP1;P2;durP2;ratioP2
34060;SDS011;20336;-33.424;-70.638;2024-01-06T00:01:02;13.27;;;5.38;;
34060;SDS011;20336;-33.424;-70.638;2024-01-06T00:03:29;12.75;;;5.45;;
34060;SDS011;20336;-33.424;-70.638;2024-01-06T00:05:56;6.30;;;4.57;;
34060;SDS011;20336;-33.424;-70.638;2024-01-06T00:08:25;9.88;;;4.88;;
34060;SDS011;20336;-33.424;-70.638;2024-01-06T00:10:52;8.98;;;5.07;;
34060;SDS011;20336;-33.424;-70.638;2024-01-06T00:13:19;14.38;;;4.93;;
34060;SDS011;20336;-33.424;-70.638;2024-01-06T00:15:46;10.82;;;5.05;;
34060;SDS011;20336;-33.424;-70.638;2024-01-06T00:18:13;19.45;;;5.43;;
34060;SDS011;20336;-33.424;-70.638;2024-01-06T00:20:39;11.05;;;4.80;;
34060;SDS011;20336;-33.424;-70.638;2024-01-06T00:23:06;11.40;;;4.40;;
34060;SDS011;20336;-33.424;-70.638;2024-01-06T00:25:33;7.85;;;4.07;;
34060;SDS011;20336;-33.424;-70.638;2024-01-06T00:28:00;13.48;;;4.80;;
34060;SDS011;20336;-33.424;-70.638;2024-01-06T00:30:27;11.00;;;4.38;;
34060;SDS011;20336;-33.424;-70.638;2024-01-06T00:32:54;12.45;;;5.15;;
34060;SDS011;20336;-33.424;-70.638;2024-01-06T00:35:21;10.40;;;4.45;;
34060;SDS011;20336;-33.424;-70.638;2024-01-06T00:37:48;9.77;;;4.25;;
34060;SDS011;20336;-33.424;-70.638;2024-01-06T00:40:15;11.52;;;4.35;;
34060;SDS011;20336;-33.424;-70.638;2024-01-06T00:42:44;6.97;;;4.13;;
34060;SDS011;20336;-33.424;-70.638;2024-01-06T00:45:11;6.70;;;4.50;;
34060;SDS011;20336;-33.424;-70.638;2024-01-06T00:47:38;9.93;;;4.55;;
34060;SDS011;20336;-33.424;-70.638;2024-01-06T00:50:05;9.02;;;4.32;;
34060;SDS011;20336;-33.424;-70.638;2024-01-06T00:52:32;9.63;;;4.07;;
34060;SDS011;20336;-33.424;-70.638;2024-01-06T00:54:59;13.02;;;4.95;;
34060;SDS011;20336;-33.424;-70.638;2024-01-06T00:57:25;7.78;;;4.45;;
34060;SDS011;20336;-33.424;-70.638;2024-01-06T00:59:53;7.40;;;5.05;;
34060;SDS011;20336;-33.424;-70.638;2024-01-06T01:02:20;9.43;;;4.68;;
34060;SDS011;20336;-33.424;-70.638;2024-01-06T01:04:47;10.68;;;4.43;;
34060;SDS011;20336;-33.424;-70.638;2024-01-06T01:07:14;7.90;;;4.93;;
34060;SDS011;20336;-33.424;-70.638;2024-01-06T01:09:41;12.18;;;5.00;;
34060;SDS011;20336;-33.424;-70.638;2024-01-06T01:12:08;10.52;;;4.85;;
34060;SDS011;20336;-33.424;-70.638;2024-01-06T01:14:35;7.57;;;4.88;;
34060;SDS011;20336;-33.424;-70.638;2024-01-06T01:17:02;11.45;;;5.07;;
34060;SDS011;20336;-33.424;-70.638;2024-01-06T01:19:29;13.30;;;4.70;;
34060;SDS011;20336;-33.424;-70.638;2024-01-06T01:21:56;11.57;;;4.65;;
34060;SDS011;20336;-33.424;-70.638;2024-01-06T01:24:23;11.13;;;5.20;;
34060;SDS011;20336;-33.424;-70.638;2024-01-06T01:26:50;8.35;;;4.55;;
34060;SDS011;20336;-33.424;-70.638;2024-01-06T01:29:18;6.78;;;4.57;;
34060;SDS011;20336;-33.424;-70.638;2024-01-06T01:31:46;34.47;;;10.00;;
34060;SDS011;20336;-33.424;-70.638;2024-01-06T01:34:13;11.88;;;5.00;;
34060;SDS011;20336;-33.424;-70.638;2024-01-06T01:36:40;14.90;;;5.60;;
34060;SDS011;20336;-33.424;-70.638;2024-01-06T01:39:07;10.75;;;5.65;;
34060;SDS011;20336;-33.424;-70.638;2024-01-06T01:41:34;13.90;;;5.80;;
34060;SDS011;20336;-33.424;-70.638;2024-01-06T01:44:01;12.40;;;5.95;;
34060;SDS011;20336;-33.424;-70.638;2024-01-06T01:46:28;9.85;;;5.07;;
34060;SDS011;20336;-33.424;-70.638;2024-01-06T01:48:56;10.75;;;5.15;;
34060;SDS011;20336;-33.424;-70.638;2024-01-06T01:51:24;8.90;;;4.75;;
34060;SDS011;20336;-33.424;-70.638;2024-01-06T01:53:53;11.98;;;5.68;;
34060;SDS011;20336;-33.424;-70.638;2024-01-06T01:56:20;10.95;;;5.00;;
34060;SDS011;20336;-33.424;-70.638;2024-01-06T01:58:47;9.30;;;5.22;;
34060;SDS011;20336;-33.424;-70.638;2024-01-06T02:01:15;11.65;;;5.78;;
34060;SDS011;20336;-33.424;-70.638;2024-01-06T02:03:42;12.88;;;5.30;;
34060;SDS011;20336;-33.424;-70.638;2024-01-06T02:06:09;10.15;;;5.32;;
34060;SDS011;20336;-33.424;-70.638;2024-01-06T02:08:37;10.13;;;5.15;;
34060;SDS011;20336;-33.424;-70.638;2024-01-06T02:11:04;12.98;;;4.80;;
34060;SDS011;20336;-33.424;-70.638;2024-01-06T02:13:34;10.48;;;5.18;;
34060;SDS011;20336;-33.424;-70.638;2024-01-06T02:16:04;12.65;;;5.28;;
34060;SDS011;20336;-33.424;-70.638;2024-01-06T02:18:32;8.73;;;5.13;;
34060;SDS011;20336;-33.424;-70.638;2024-01-06T02:20:59;9.23;;;5.30;;
34060;SDS011;20336;-33.424;-70.638;2024-01-06T02:23:27;10.80;;;5.13;;
34060;SDS011;20336;-33.424;-70.638;2024-01-06T02:25:55;10.07;;;5.72;;
34060;SDS011;20336;-33.424;-70.638;2024-01-06T02:28:22;12.23;;;5.57;;
34060;SDS011;20336;-33.424;-70.638;2024-01-06T02:30:49;9.18;;;5.05;;
34060;SDS011;20336;-33.424;-70.638;2024-01-06T02:33:16;10.80;;;4.70;;
34060;SDS011;20336;-33.424;-70.638;2024-01-06T02:35:45;11.60;;;5.32;;
34060;SDS011;20336;-33.424;-70.638;2024-01-06T02:38:12;12.98;;;5.22;;
34060;SDS011;20336;-33.424;-70.638;2024-01-06T02:40:39;12.48;;;5.22;;
34060;SDS011;20336;-33.424;-70.638;2024-01-06T02:43:06;10.60;;;5.35;;
34060;SDS011;20336;-33.424;-70.638;2024-01-06T02:45:33;7.25;;;4.82;;
34060;SDS011;20336;-33.424;-70.638;2024-01-06T02:48:00;8.93;;;5.22;;
34060;SDS011;20336;-33.424;-70.638;2024-01-06T02:50:27;11.52;;;5.32;;
34060;SDS011;20336;-33.424;-70.638;2024-01-06T02:52:54;11.20;;;5.07;;
34060;SDS011;20336;-33.424;-70.638;2024-01-06T02:55:20;8.75;;;4.97;;
34060;SDS011;20336;-33.424;-70.638;2024-01-06T02:57:47;13.52;;;5.63;;
34060;SDS011;20336;-33.424;-70.638;2024-01-06T03:00:14;8.48;;;5.00;;
34060;SDS011;20336;-33.424;-70.638;2024-01-06T03:02:42;10.55;;;5.35;;
34060;SDS011;20336;-33.424;-70.638;2024-01-06T03:05:09;7.57;;;4.93;;
34060;SDS011;20336;-33.424;-70.638;2024-01-06T03:07:36;9.65;;;5.30;;
34060;SDS011;20336;-33.424;-70.638;2024-01-06T03:10:03;10.07;;;5.47;;
34060;SDS011;20336;-33.424;-70.638;2024-01-06T03:12:30;7.47;;;5.05;;
34060;SDS011;20336;-33.424;-70.638;2024-01-06T03:14:58;8.32;;;5.63;;
34060;SDS011;20336;-33.424;-70.638;2024-01-06T03:17:25;10.77;;;5.70;;
34060;SDS011;20336;-33.424;-70.638;2024-01-06T03:19:54;11.27;;;5.22;;
34060;SDS011;20336;-33.424;-70.638;2024-01-06T03:22:21;9.70;;;5.40;;
34060;SDS011;20336;-33.424;-70.638;2024-01-06T03:24:48;9.88;;;5.18;;
34060;SDS011;20336;-33.424;-70.638;2024-01-06T03:27:15;14.75;;;5.20;;
34060;SDS011;20336;-33.424;-70.638;2024-01-06T03:29:42;11.52;;;5.90;;
34060;SDS011;20336;-33.424;-70.638;2024-01-06T03:32:09;9.85;;;5.53;;
34060;SDS011;20336;-33.424;-70.638;2024-01-06T03:34:36;9.98;;;5.63;;
34060;SDS011;20336;-33.424;-70.638;2024-01-06T03:37:02;9.52;;;6.13;;
34060;SDS011;20336;-33.424;-70.638;2024-01-06T03:39:30;14.60;;;5.38;;
34060;SDS011;20336;-33.424;-70.638;2024-01-06T03:41:57;12.07;;;7.15;;
34060;SDS011;20336;-33.424;-70.638;2024-01-06T03:44:24;10.65;;;6.63;;
34060;SDS011;20336;-33.424;-70.638;2024-01-06T03:46:56;14.98;;;5.95;;
34060;SDS011;20336;-33.424;-70.638;2024-01-06T03:49:23;11.65;;;5.65;;
34060;SDS011;20336;-33.424;-70.638;2024-01-06T03:51:50;9.30;;;5.65;;
34060;SDS011;20336;-33.424;-70.638;2024-01-06T03:54:17;8.77;;;5.72;;
34060;SDS011;20336;-33.424;-70.638;2024-01-06T03:56:44;8.02;;;5.50;;
34060;SDS011;20336;-33.424;-70.638;2024-01-06T03:59:11;9.25;;;5.90;;
34060;SDS011;20336;-33.424;-70.638;2024-01-06T04:01:38;13.73;;;6.28;;
34060;SDS011;20336;-33.424;-70.638;2024-01-06T04:04:05;18.52;;;8.38;;
34060;SDS011;20336;-33.424;-70.638;2024-01-06T04:06:32;14.45;;;5.85;;
34060;SDS011;20336;-33.424;-70.638;2024-01-06T04:09:03;12.18;;;6.15;;
34060;SDS011;20336;-33.424;-70.638;2024-01-06T04:11:30;11.85;;;6.50;;
34060;SDS011;20336;-33.424;-70.638;2024-01-06T04:13:57;17.02;;;8.63;;
34060;SDS011;20336;-33.424;-70.638;2024-01-06T04:16:25;14.23;;;7.82;;
34060;SDS011;20336;-33.424;-70.638;2024-01-06T04:18:53;14.90;;;9.15;;
34060;SDS011;20336;-33.424;-70.638;2024-01-06T04:21:20;25.40;;;14.27;;
34060;SDS011;20336;-33.424;-70.638;2024-01-06T04:23:47;32.70;;;18.33;;
34060;SDS011;20336;-33.424;-70.638;2024-01-06T04:26:15;30.92;;;19.17;;
34060;SDS011;20336;-33.424;-70.638;2024-01-06T04:28:41;32.08;;;19.10;;
34060;SDS011;20336;-33.424;-70.638;2024-01-06T04:31:08;32.47;;;17.80;;
34060;SDS011;20336;-33.424;-70.638;2024-01-06T04:33:35;25.63;;;16.23;;
34060;SDS011;20336;-33.424;-70.638;2024-01-06T04:36:03;25.88;;;14.00;;
34060;SDS011;20336;-33.424;-70.638;2024-01-06T04:38:30;25.88;;;13.35;;
34060;SDS011;20336;-33.424;-70.638;2024-01-06T04:40:57;21.60;;;12.00;;
34060;SDS011;20336;-33.424;-70.638;2024-01-06T04:43:24;21.08;;;11.40;;
34060;SDS011;20336;-33.424;-70.638;2024-01-06T04:45:51;22.17;;;11.20;;
34060;SDS011;20336;-33.424;-70.638;2024-01-06T04:48:18;16.70;;;8.82;;
34060;SDS011;20336;-33.424;-70.638;2024-01-06T04:50:45;20.58;;;9.60;;
34060;SDS011;20336;-33.424;-70.638;2024-01-06T04:53:12;13.45;;;8.75;;
34060;SDS011;20336;-33.424;-70.638;2024-01-06T04:55:38;13.02;;;8.48;;
34060;SDS011;20336;-33.424;-70.638;2024-01-06T04:58:05;13.60;;;7.88;;
34060;SDS011;20336;-33.424;-70.638;2024-01-06T05:00:32;12.57;;;8.20;;
34060;SDS011;20336;-33.424;-70.638;2024-01-06T05:03:01;18.63;;;8.00;;
34060;SDS011;20336;-33.424;-70.638;2024-01-06T05:05:28;13.13;;;7.03;;
34060;SDS011;20336;-33.424;-70.638;2024-01-06T05:07:55;13.10;;;7.30;;
34060;SDS011;20336;-33.424;-70.638;2024-01-06T05:10:23;11.50;;;7.20;;
34060;SDS011;20336;-33.424;-70.638;2024-01-06T05:12:50;15.13;;;7.00;;
34060;SDS011;20336;-33.424;-70.638;2024-01-06T05:15:17;13.30;;;7.32;;
34060;SDS011;20336;-33.424;-70.638;2024-01-06T05:17:44;10.98;;;6.50;;
34060;SDS011;20336;-33.424;-70.638;2024-01-06T05:20:11;32.55;;;8.68;;
34060;SDS011;20336;-33.424;-70.638;2024-01-06T05:22:38;16.33;;;7.28;;
34060;SDS011;20336;-33.424;-70.638;2024-01-06T05:25:05;13.45;;;7.13;;
34060;SDS011;20336;-33.424;-70.638;2024-01-06T05:27:32;12.27;;;7.22;;
34060;SDS011;20336;-33.424;-70.638;2024-01-06T05:29:59;14.02;;;7.28;;
34060;SDS011;20336;-33.424;-70.638;2024-01-06T05:32:25;39.72;;;8.65;;
34060;SDS011;20336;-33.424;-70.638;2024-01-06T05:34:52;13.82;;;7.15;;
34060;SDS011;20336;-33.424;-70.638;2024-01-06T05:37:20;11.20;;;7.18;;
34060;SDS011;20336;-33.424;-70.638;2024-01-06T05:39:47;11.15;;;7.47;;
34060;SDS011;20336;-33.424;-70.638;2024-01-06T05:42:13;14.20;;;7.50;;
34060;SDS011;20336;-33.424;-70.638;2024-01-06T05:44:40;14.32;;;7.80;;
34060;SDS011;20336;-33.424;-70.638;2024-01-06T05:47:07;13.48;;;7.70;;
34060;SDS011;20336;-33.424;-70.638;2024-01-06T05:49:34;11.55;;;7.50;;
34060;SDS011;20336;-33.424;-70.638;2024-01-06T05:52:01;14.45;;;7.30;;
34060;SDS011;20336;-33.424;-70.638;2024-01-06T05:54:28;21.70;;;10.45;;
34060;SDS011;20336;-33.424;-70.638;2024-01-06T05:56:56;14.05;;;7.57;;
34060;SDS011;20336;-33.424;-70.638;2024-01-06T05:59:23;12.48;;;7.65;;
34060;SDS011;20336;-33.424;-70.638;2024-01-06T06:01:49;13.52;;;7.72;;
34060;SDS011;20336;-33.424;-70.638;2024-01-06T06:04:17;14.95;;;8.32;;
34060;SDS011;20336;-33.424;-70.638;2024-01-06T06:06:44;20.67;;;10.10;;
34060;SDS011;20336;-33.424;-70.638;2024-01-06T06:09:11;16.98;;;10.15;;
34060;SDS011;20336;-33.424;-70.638;2024-01-06T06:11:38;19.23;;;11.20;;
34060;SDS011;20336;-33.424;-70.638;2024-01-06T06:14:05;23.17;;;13.48;;
34060;SDS011;20336;-33.424;-70.638;2024-01-06T06:16:32;26.02;;;15.10;;
34060;SDS011;20336;-33.424;-70.638;2024-01-06T06:18:59;29.45;;;16.80;;
34060;SDS011;20336;-33.424;-70.638;2024-01-06T06:21:27;29.88;;;17.10;;
34060;SDS011;20336;-33.424;-70.638;2024-01-06T06:23:54;29.70;;;16.90;;
34060;SDS011;20336;-33.424;-70.638;2024-01-06T06:26:21;24.95;;;15.63;;
34060;SDS011;20336;-33.424;-70.638;2024-01-06T06:28:48;24.50;;;14.55;;
34060;SDS011;20336;-33.424;-70.638;2024-01-06T06:31:15;26.73;;;15.13;;
34060;SDS011;20336;-33.424;-70.638;2024-01-06T06:33:42;27.50;;;15.25;;
34060;SDS011;20336;-33.424;-70.638;2024-01-06T06:36:09;24.25;;;16.05;;
34060;SDS011;20336;-33.424;-70.638;2024-01-06T06:38:36;25.02;;;15.75;;
34060;SDS011;20336;-33.424;-70.638;2024-01-06T06:41:03;29.13;;;15.85;;
34060;SDS011;20336;-33.424;-70.638;2024-01-06T06:43:30;25.15;;;14.98;;
34060;SDS011;20336;-33.424;-70.638;2024-01-06T06:45:57;20.50;;;13.27;;
34060;SDS011;20336;-33.424;-70.638;2024-01-06T06:48:24;18.13;;;11.40;;
34060;SDS011;20336;-33.424;-70.638;2024-01-06T06:50:51;21.40;;;11.70;;
34060;SDS011;20336;-33.424;-70.638;2024-01-06T06:53:18;22.10;;;13.25;;
34060;SDS011;20336;-33.424;-70.638;2024-01-06T06:55:45;21.48;;;12.65;;
34060;SDS011;20336;-33.424;-70.638;2024-01-06T06:58:12;21.80;;;12.63;;
34060;SDS011;20336;-33.424;-70.638;2024-01-06T07:00:39;21.55;;;12.20;;
34060;SDS011;20336;-33.424;-70.638;2024-01-06T07:03:08;24.35;;;13.48;;
34060;SDS011;20336;-33.424;-70.638;2024-01-06T07:05:35;23.15;;;13.30;;
34060;SDS011;20336;-33.424;-70.638;2024-01-06T07:08:02;25.05;;;14.07;;
34060;SDS011;20336;-33.424;-70.638;2024-01-06T07:10:29;26.38;;;13.50;;
34060;SDS011;20336;-33.424;-70.638;2024-01-06T07:12:56;24.45;;;13.35;;
34060;SDS011;20336;-33.424;-70.638;2024-01-06T07:15:23;22.90;;;12.85;;
34060;SDS011;20336;-33.424;-70.638;2024-01-06T07:17:50;21.02;;;12.20;;
34060;SDS011;20336;-33.424;-70.638;2024-01-06T07:20:17;21.80;;;11.80;;
34060;SDS011;20336;-33.424;-70.638;2024-01-06T07:22:48;17.38;;;10.25;;
34060;SDS011;20336;-33.424;-70.638;2024-01-06T07:25:15;15.55;;;9.75;;
34060;SDS011;20336;-33.424;-70.638;2024-01-06T07:27:45;16.65;;;9.35;;
34060;SDS011;20336;-33.424;-70.638;2024-01-06T07:30:12;15.70;;;9.10;;
34060;SDS011;20336;-33.424;-70.638;2024-01-06T07:32:39;15.32;;;8.90;;
34060;SDS011;20336;-33.424;-70.638;2024-01-06T07:35:07;15.80;;;9.68;;
34060;SDS011;20336;-33.424;-70.638;2024-01-06T07:37:34;16.00;;;9.35;;
34060;SDS011;20336;-33.424;-70.638;2024-01-06T07:40:01;13.35;;;9.13;;
34060;SDS011;20336;-33.424;-70.638;2024-01-06T07:42:29;13.93;;;8.52;;
34060;SDS011;20336;-33.424;-70.638;2024-01-06T07:44:55;16.98;;;8.63;;
34060;SDS011;20336;-33.424;-70.638;2024-01-06T07:47:23;16.73;;;9.32;;
34060;SDS011;20336;-33.424;-70.638;2024-01-06T07:49:50;18.50;;;9.23;;
34060;SDS011;20336;-33.424;-70.638;2024-01-06T07:52:18;16.08;;;8.73;;
34060;SDS011;20336;-33.424;-70.638;2024-01-06T07:54:45;15.32;;;9.15;;
34060;SDS011;20336;-33.424;-70.638;2024-01-06T07:57:12;15.00;;;9.68;;
34060;SDS011;20336;-33.424;-70.638;2024-01-06T07:59:42;20.05;;;8.88;;
34060;SDS011;20336;-33.424;-70.638;2024-01-06T08:02:09;14.27;;;8.85;;
34060;SDS011;20336;-33.424;-70.638;2024-01-06T08:04:36;18.08;;;9.38;;
34060;SDS011;20336;-33.424;-70.638;2024-01-06T08:07:03;19.60;;;9.65;;
34060;SDS011;20336;-33.424;-70.638;2024-01-06T08:09:30;15.45;;;9.55;;
34060;SDS011;20336;-33.424;-70.638;2024-01-06T08:11:57;19.00;;;9.90;;
34060;SDS011;20336;-33.424;-70.638;2024-01-06T08:14:24;17.08;;;9.38;;
34060;SDS011;20336;-33.424;-70.638;2024-01-06T08:16:51;20.38;;;9.75;;
34060;SDS011;20336;-33.424;-70.638;2024-01-06T08:19:18;16.80;;;10.30;;
34060;SDS011;20336;-33.424;-70.638;2024-01-06T08:21:45;16.63;;;9.35;;
34060;SDS011;20336;-33.424;-70.638;2024-01-06T08:24:12;17.33;;;9.52;;
34060;SDS011;20336;-33.424;-70.638;2024-01-06T08:26:39;17.10;;;9.60;;
34060;SDS011;20336;-33.424;-70.638;2024-01-06T08:29:06;15.95;;;9.38;;
34060;SDS011;20336;-33.424;-70.638;2024-01-06T08:31:33;19.58;;;10.50;;
34060;SDS011;20336;-33.424;-70.638;2024-01-06T08:34:00;16.27;;;8.93;;
34060;SDS011;20336;-33.424;-70.638;2024-01-06T08:36:27;14.95;;;10.35;;
34060;SDS011;20336;-33.424;-70.638;2024-01-06T08:38:54;21.45;;;10.82;;
34060;SDS011;20336;-33.424;-70.638;2024-01-06T08:41:21;24.00;;;11.43;;
34060;SDS011;20336;-33.424;-70.638;2024-01-06T08:43:48;17.85;;;10.73;;
34060;SDS011;20336;-33.424;-70.638;2024-01-06T08:46:15;16.98;;;11.00;;
34060;SDS011;20336;-33.424;-70.638;2024-01-06T08:48:42;19.40;;;11.30;;
34060;SDS011;20336;-33.424;-70.638;2024-01-06T08:51:09;18.77;;;11.02;;
34060;SDS011;20336;-33.424;-70.638;2024-01-06T08:53:36;22.15;;;11.23;;
34060;SDS011;20336;-33.424;-70.638;2024-01-06T08:56:03;16.35;;;10.40;;
34060;SDS011;20336;-33.424;-70.638;2024-01-06T08:58:33;20.30;;;11.07;;
34060;SDS011;20336;-33.424;-70.638;2024-01-06T09:01:00;20.48;;;11.65;;
34060;SDS011;20336;-33.424;-70.638;2024-01-06T09:03:27;17.23;;;10.15;;
34060;SDS011;20336;-33.424;-70.638;2024-01-06T09:05:57;21.27;;;11.60;;
34060;SDS011;20336;-33.424;-70.638;2024-01-06T09:08:24;19.27;;;11.38;;
34060;SDS011;20336;-33.424;-70.638;2024-01-06T09:10:51;22.27;;;12.77;;
34060;SDS011;20336;-33.424;-70.638;2024-01-06T09:13:21;22.63;;;12.35;;
34060;SDS011;20336;-33.424;-70.638;2024-01-06T09:15:48;19.50;;;11.75;;
34060;SDS011;20336;-33.424;-70.638;2024-01-06T09:18:16;20.15;;;11.45;;
34060;SDS011;20336;-33.424;-70.638;2024-01-06T09:20:43;22.55;;;12.38;;
34060;SDS011;20336;-33.424;-70.638;2024-01-06T09:23:13;25.33;;;14.10;;
34060;SDS011;20336;-33.424;-70.638;2024-01-06T09:25:40;60.25;;;17.05;;
34060;SDS011;20336;-33.424;-70.638;2024-01-06T09:28:07;38.83;;;15.30;;
34060;SDS011;20336;-33.424;-70.638;2024-01-06T09:30:34;25.90;;;14.40;;
34060;SDS011;20336;-33.424;-70.638;2024-01-06T09:33:02;21.52;;;13.13;;
34060;SDS011;20336;-33.424;-70.638;2024-01-06T09:35:29;23.45;;;15.05;;
34060;SDS011;20336;-33.424;-70.638;2024-01-06T09:37:56;25.10;;;14.38;;
34060;SDS011;20336;-33.424;-70.638;2024-01-06T09:40:23;24.98;;;13.65;;
34060;SDS011;20336;-33.424;-70.638;2024-01-06T09:42:51;26.77;;;14.07;;
34060;SDS011;20336;-33.424;-70.638;2024-01-06T09:45:19;23.70;;;13.75;;
34060;SDS011;20336;-33.424;-70.638;2024-01-06T09:47:49;23.65;;;14.60;;
34060;SDS011;20336;-33.424;-70.638;2024-01-06T09:50:20;25.25;;;14.35;;
34060;SDS011;20336;-33.424;-70.638;2024-01-06T09:52:47;25.95;;;15.23;;
34060;SDS011;20336;-33.424;-70.638;2024-01-06T09:55:23;27.60;;;13.88;;
34060;SDS011;20336;-33.424;-70.638;2024-01-06T09:57:53;23.50;;;14.25;;
34060;SDS011;20336;-33.424;-70.638;2024-01-06T10:00:20;23.17;;;13.98;;
34060;SDS011;20336;-33.424;-70.638;2024-01-06T10:02:48;21.75;;;13.77;;
34060;SDS011;20336;-33.424;-70.638;2024-01-06T10:05:16;26.15;;;13.77;;
34060;SDS011;20336;-33.424;-70.638;2024-01-06T10:07:47;21.48;;;12.40;;
34060;SDS011;20336;-33.424;-70.638;2024-01-06T10:10:14;20.45;;;12.13;;
34060;SDS011;20336;-33.424;-70.638;2024-01-06T10:12:42;18.17;;;11.70;;
34060;SDS011;20336;-33.424;-70.638;2024-01-06T10:15:10;16.63;;;11.40;;
34060;SDS011;20336;-33.424;-70.638;2024-01-06T10:17:41;18.90;;;11.23;;
34060;SDS011;20336;-33.424;-70.638;2024-01-06T10:20:09;16.20;;;10.55;;
34060;SDS011;20336;-33.424;-70.638;2024-01-06T10:22:37;20.58;;;11.80;;
34060;SDS011;20336;-33.424;-70.638;2024-01-06T10:25:05;21.63;;;12.75;;
34060;SDS011;20336;-33.424;-70.638;2024-01-06T10:27:35;22.60;;;11.85;;
34060;SDS011;20336;-33.424;-70.638;2024-01-06T10:30:02;19.60;;;11.88;;
34060;SDS011;20336;-33.424;-70.638;2024-01-06T10:32:31;19.00;;;11.38;;
34060;SDS011;20336;-33.424;-70.638;2024-01-06T10:34:58;17.38;;;9.88;;
34060;SDS011;20336;-33.424;-70.638;2024-01-06T10:37:27;16.02;;;10.95;;
34060;SDS011;20336;-33.424;-70.638;2024-01-06T10:42:37;21.10;;;10.93;;
34060;SDS011;20336;-33.424;-70.638;2024-01-06T10:45:07;20.20;;;10.90;;
34060;SDS011;20336;-33.424;-70.638;2024-01-06T10:47:35;23.30;;;11.98;;
34060;SDS011;20336;-33.424;-70.638;2024-01-06T10:50:02;19.67;;;11.48;;
34060;SDS011;20336;-33.424;-70.638;2024-01-06T10:52:30;19.10;;;12.10;;
34060;SDS011;20336;-33.424;-70.638;2024-01-06T10:54:57;19.67;;;11.10;;
34060;SDS011;20336;-33.424;-70.638;2024-01-06T10:57:24;17.42;;;10.68;;
34060;SDS011;20336;-33.424;-70.638;2024-01-06T10:59:53;21.38;;;11.43;;
34060;SDS011;20336;-33.424;-70.638;2024-01-06T11:02:20;19.88;;;10.32;;
34060;SDS011;20336;-33.424;-70.638;2024-01-06T11:04:47;19.55;;;10.43;;
34060;SDS011;20336;-33.424;-70.638;2024-01-06T11:07:17;21.05;;;11.10;;
34060;SDS011;20336;-33.424;-70.638;2024-01-06T11:12:31;20.77;;;11.18;;
34060;SDS011;20336;-33.424;-70.638;2024-01-06T11:14:58;15.75;;;10.60;;
34060;SDS011;20336;-33.424;-70.638;2024-01-06T11:20:10;21.60;;;11.65;;
34060;SDS011;20336;-33.424;-70.638;2024-01-06T11:22:37;23.63;;;11.43;;
34060;SDS011;20336;-33.424;-70.638;2024-01-06T11:27:32;18.15;;;10.15;;
34060;SDS011;20336;-33.424;-70.638;2024-01-06T11:30:01;16.58;;;11.60;;
34060;SDS011;20336;-33.424;-70.638;2024-01-06T11:32:38;23.80;;;11.80;;
34060;SDS011;20336;-33.424;-70.638;2024-01-06T11:35:11;20.75;;;11.13;;
34060;SDS011;20336;-33.424;-70.638;2024-01-06T11:42:47;17.75;;;11.52;;
34060;SDS011;20336;-33.424;-70.638;2024-01-06T11:45:14;17.52;;;11.52;;
34060;SDS011;20336;-33.424;-70.638;2024-01-06T11:47:42;20.60;;;11.68;;
34060;SDS011;20336;-33.424;-70.638;2024-01-06T11:50:13;17.80;;;12.55;;
34060;SDS011;20336;-33.424;-70.638;2024-01-06T11:52:40;21.05;;;13.00;;
34060;SDS011;20336;-33.424;-70.638;2024-01-06T11:55:07;23.27;;;13.73;;
34060;SDS011;20336;-33.424;-70.638;2024-01-06T11:57:34;22.05;;;14.43;;
34060;SDS011;20336;-33.424;-70.638;2024-01-06T12:00:01;21.02;;;13.93;;
34060;SDS011;20336;-33.424;-70.638;2024-01-06T12:02:29;19.83;;;13.00;;
34060;SDS011;20336;-33.424;-70.638;2024-01-06T12:04:56;22.08;;;13.35;;
34060;SDS011;20336;-33.424;-70.638;2024-01-06T12:07:23;22.52;;;14.48;;
34060;SDS011;20336;-33.424;-70.638;2024-01-06T12:09:51;30.48;;;14.40;;
34060;SDS011;20336;-33.424;-70.638;2024-01-06T12:12:21;24.55;;;15.07;;
34060;SDS011;20336;-33.424;-70.638;2024-01-06T12:14:49;24.55;;;15.73;;
34060;SDS011;20336;-33.424;-70.638;2024-01-06T12:17:16;37.97;;;22.58;;
34060;SDS011;20336;-33.424;-70.638;2024-01-06T12:19:43;30.60;;;19.38;;
34060;SDS011;20336;-33.424;-70.638;2024-01-06T12:22:12;29.35;;;18.33;;
34060;SDS011;20336;-33.424;-70.638;2024-01-06T12:24:39;35.17;;;20.80;;
34060;SDS011;20336;-33.424;-70.638;2024-01-06T12:27:07;36.25;;;20.13;;
34060;SDS011;20336;-33.424;-70.638;2024-01-06T12:29:41;31.67;;;20.15;;
34060;SDS011;20336;-33.424;-70.638;2024-01-06T12:32:08;36.65;;;20.60;;
34060;SDS011;20336;-33.424;-70.638;2024-01-06T12:34:35;35.58;;;19.23;;
34060;SDS011;20336;-33.424;-70.638;2024-01-06T12:37:02;31.05;;;20.65;;
34060;SDS011;20336;-33.424;-70.638;2024-01-06T12:39:29;34.13;;;20.13;;
34060;SDS011;20336;-33.424;-70.638;2024-01-06T12:42:01;28.48;;;19.42;;
34060;SDS011;20336;-33.424;-70.638;2024-01-06T12:44:28;31.27;;;18.77;;
34060;SDS011;20336;-33.424;-70.638;2024-01-06T12:46:55;34.55;;;19.10;;
34060;SDS011;20336;-33.424;-70.638;2024-01-06T12:49:22;32.80;;;20.58;;
34060;SDS011;20336;-33.424;-70.638;2024-01-06T12:51:49;36.58;;;19.17;;
34060;SDS011;20336;-33.424;-70.638;2024-01-06T12:54:16;31.15;;;20.02;;
34060;SDS011;20336;-33.424;-70.638;2024-01-06T12:56:43;29.48;;;19.63;;
34060;SDS011;20336;-33.424;-70.638;2024-01-06T12:59:09;33.13;;;19.05;;
34060;SDS011;20336;-33.424;-70.638;2024-01-06T13:01:36;26.30;;;18.75;;
34060;SDS011;20336;-33.424;-70.638;2024-01-06T13:04:04;29.27;;;18.55;;
34060;SDS011;20336;-33.424;-70.638;2024-01-06T13:06:31;30.60;;;20.58;;
34060;SDS011;20336;-33.424;-70.638;2024-01-06T13:08:58;36.63;;;21.65;;
34060;SDS011;20336;-33.424;-70.638;2024-01-06T13:11:27;30.35;;;19.25;;
34060;SDS011;20336;-33.424;-70.638;2024-01-06T13:13:54;29.02;;;18.67;;
34060;SDS011;20336;-33.424;-70.638;2024-01-06T13:16:21;31.45;;;20.08;;
34060;SDS011;20336;-33.424;-70.638;2024-01-06T13:18:48;32.55;;;20.25;;
34060;SDS011;20336;-33.424;-70.638;2024-01-06T13:21:15;27.63;;;19.10;;
34060;SDS011;20336;-33.424;-70.638;2024-01-06T13:23:44;36.08;;;21.40;;
34060;SDS011;20336;-33.424;-70.638;2024-01-06T13:26:11;39.80;;;21.75;;
34060;SDS011;20336;-33.424;-70.638;2024-01-06T13:28:39;30.70;;;21.05;;
34060;SDS011;20336;-33.424;-70.638;2024-01-06T13:31:06;36.30;;;21.50;;
34060;SDS011;20336;-33.424;-70.638;2024-01-06T13:33:33;35.95;;;21.50;;
34060;SDS011;20336;-33.424;-70.638;2024-01-06T13:36:00;40.10;;;23.40;;
34060;SDS011;20336;-33.424;-70.638;2024-01-06T13:38:27;41.75;;;23.23;;
34060;SDS011;20336;-33.424;-70.638;2024-01-06T13:40:54;34.53;;;22.75;;
34060;SDS011;20336;-33.424;-70.638;2024-01-06T13:43:25;32.42;;;20.60;;
34060;SDS011;20336;-33.424;-70.638;2024-01-06T13:45:52;42.63;;;21.65;;
34060;SDS011;20336;-33.424;-70.638;2024-01-06T13:48:19;39.63;;;22.35;;
34060;SDS011;20336;-33.424;-70.638;2024-01-06T13:50:46;39.67;;;23.63;;
34060;SDS011;20336;-33.424;-70.638;2024-01-06T13:53:13;36.35;;;21.83;;
34060;SDS011;20336;-33.424;-70.638;2024-01-06T13:55:40;37.05;;;23.67;;
34060;SDS011;20336;-33.424;-70.638;2024-01-06T13:58:08;36.58;;;22.55;;
34060;SDS011;20336;-33.424;-70.638;2024-01-06T14:00:35;38.65;;;22.33;;
34060;SDS011;20336;-33.424;-70.638;2024-01-06T14:03:03;36.28;;;22.48;;
34060;SDS011;20336;-33.424;-70.638;2024-01-06T14:05:30;38.45;;;22.42;;
34060;SDS011;20336;-33.424;-70.638;2024-01-06T14:07:57;36.20;;;23.20;;